CPA34M UHPP-RJBH
Flight info
| Callsign | CPA34M |
|---|---|
| Flight time | N/A |
| Altitude | 34000 |
| Route | SAMIK4D SAMIK T577 UB G583 LATAK/K0904F360 G583 BISIV/N0488F360 G583 MVE Y116 LUBEK V8 AWE Y116 CHE Y12 TAPPI Z16 MIHOU Y45 CARPS |
| Aircraft | L101/H-DFHILRY/S |
Departure
| Time | 2026-04-17 18:19 |
|---|---|
| Airport | Yelizovo Airport (UHPP) |
Arrival
| Time | N/A |
|---|---|
| Airport | Hiroshima Heliport (RJBH) |
| Time | Latitude | Longitude | Altitude | Speed | Heading |
|---|---|---|---|---|---|
| 2026-04-17 17:29 | 53.18370 | 158.43543 | 178 ft | 0 kts | 158° |
| 2026-04-17 18:10 | 53.18369 | 158.43543 | 179 ft | 0 kts | 158° |
| 2026-04-17 18:10 | 53.18360 | 158.43549 | 202 ft | 3 kts | 158° |
| 2026-04-17 18:10 | 53.18328 | 158.43570 | 218 ft | 7 kts | 158° |
| 2026-04-17 18:11 | 53.18292 | 158.43595 | 218 ft | 6 kts | 158° |
| 2026-04-17 18:11 | 53.18251 | 158.43638 | 220 ft | 6 kts | 118° |
| 2026-04-17 18:11 | 53.18258 | 158.43724 | 199 ft | 9 kts | 66° |
| 2026-04-17 18:11 | 53.18286 | 158.43837 | 138 ft | 12 kts | 69° |
| 2026-04-17 18:12 | 53.18312 | 158.43952 | 124 ft | 10 kts | 69° |
| 2026-04-17 18:12 | 53.18322 | 158.44062 | 127 ft | 9 kts | 100° |
| 2026-04-17 18:12 | 53.18272 | 158.44137 | 129 ft | 13 kts | 156° |
| 2026-04-17 18:12 | 53.18174 | 158.44207 | 125 ft | 18 kts | 160° |
| 2026-04-17 18:13 | 53.18047 | 158.44292 | 124 ft | 21 kts | 155° |
| 2026-04-17 18:13 | 53.17904 | 158.44399 | 124 ft | 23 kts | 156° |
| 2026-04-17 18:13 | 53.17756 | 158.44499 | 126 ft | 23 kts | 160° |
| 2026-04-17 18:13 | 53.17605 | 158.44599 | 133 ft | 24 kts | 157° |
| 2026-04-17 18:14 | 53.17452 | 158.44707 | 134 ft | 24 kts | 157° |
| 2026-04-17 18:14 | 53.17277 | 158.44831 | 133 ft | 30 kts | 158° |
| 2026-04-17 18:14 | 53.17039 | 158.44990 | 126 ft | 43 kts | 155° |
| 2026-04-17 18:14 | 53.16737 | 158.45204 | 127 ft | 51 kts | 156° |
| 2026-04-17 18:15 | 53.16410 | 158.45427 | 126 ft | 49 kts | 158° |
| 2026-04-17 18:15 | 53.16116 | 158.45633 | 127 ft | 43 kts | 158° |
| 2026-04-17 18:15 | 53.15914 | 158.45766 | 133 ft | 16 kts | 166° |
| 2026-04-17 18:15 | 53.15870 | 158.45765 | 133 ft | 1 kts | 200° |
| 2026-04-17 18:16 | 53.15864 | 158.45767 | 133 ft | 1 kts | 172° |
| 2026-04-17 18:16 | 53.15857 | 158.45778 | 133 ft | 2 kts | 129° |
| 2026-04-17 18:16 | 53.15859 | 158.45799 | 133 ft | 2 kts | 63° |
| 2026-04-17 18:16 | 53.15874 | 158.45802 | 132 ft | 2 kts | 345° |
| 2026-04-17 18:17 | 53.15880 | 158.45797 | 132 ft | 0 kts | 334° |
| 2026-04-17 18:18 | 53.15890 | 158.45789 | 132 ft | 8 kts | 334° |
| 2026-04-17 18:18 | 53.16118 | 158.45622 | 126 ft | 71 kts | 338° |
| 2026-04-17 18:18 | 53.16819 | 158.45141 | 133 ft | 142 kts | 338° |
| 2026-04-17 18:19 | 53.17878 | 158.44403 | 455 ft | 180 kts | 337° |
| 2026-04-17 18:19 | 53.19018 | 158.43575 | 1564 ft | 175 kts | 336° |
| 2026-04-17 18:19 | 53.20113 | 158.42784 | 2873 ft | 169 kts | 335° |
| 2026-04-17 18:19 | 53.21185 | 158.42008 | 3956 ft | 171 kts | 335° |
| 2026-04-17 18:20 | 53.22329 | 158.41170 | 4603 ft | 188 kts | 335° |
| 2026-04-17 18:20 | 53.23597 | 158.40232 | 5031 ft | 212 kts | 334° |
| 2026-04-17 18:20 | 53.25029 | 158.39160 | 5328 ft | 239 kts | 334° |
| 2026-04-17 18:20 | 53.26630 | 158.37951 | 5541 ft | 264 kts | 334° |
| 2026-04-17 18:21 | 53.28330 | 158.36658 | 6149 ft | 268 kts | 334° |
| 2026-04-17 18:21 | 53.29989 | 158.35394 | 7174 ft | 257 kts | 334° |
| 2026-04-17 18:21 | 53.31623 | 158.34146 | 7877 ft | 262 kts | 334° |
| 2026-04-17 18:21 | 53.33327 | 158.32834 | 8273 ft | 275 kts | 333° |
| 2026-04-17 18:22 | 53.35075 | 158.31481 | 8856 ft | 282 kts | 333° |
| 2026-04-17 18:22 | 53.36869 | 158.30086 | 9854 ft | 283 kts | 333° |
| 2026-04-17 18:22 | 53.38621 | 158.28723 | 11224 ft | 272 kts | 333° |
| 2026-04-17 18:22 | 53.40338 | 158.27388 | 12367 ft | 274 kts | 333° |
| 2026-04-17 18:23 | 53.42112 | 158.26000 | 13047 ft | 292 kts | 332° |
| 2026-04-17 18:23 | 53.44041 | 158.24470 | 13294 ft | 322 kts | 332° |
| 2026-04-17 18:23 | 53.46162 | 158.22768 | 13424 ft | 353 kts | 332° |
| 2026-04-17 18:23 | 53.48444 | 158.20876 | 13576 ft | 378 kts | 328° |
| 2026-04-17 18:24 | 53.50553 | 158.18162 | 14078 ft | 388 kts | 310° |
| 2026-04-17 18:24 | 53.51986 | 158.14341 | 15018 ft | 386 kts | 290° |
| 2026-04-17 18:24 | 53.52481 | 158.10050 | 16389 ft | 375 kts | 270° |
| 2026-04-17 18:24 | 53.52021 | 158.05820 | 17959 ft | 367 kts | 250° |
| 2026-04-17 18:25 | 53.50719 | 158.02139 | 18954 ft | 373 kts | 232° |
| 2026-04-17 18:25 | 53.48774 | 157.99124 | 19504 ft | 390 kts | 221° |
| 2026-04-17 18:25 | 53.46459 | 157.96539 | 19728 ft | 410 kts | 214° |
| 2026-04-17 18:25 | 53.43919 | 157.94154 | 20007 ft | 425 kts | 212° |
| 2026-04-17 18:26 | 53.41276 | 157.91877 | 20803 ft | 426 kts | 211° |
| 2026-04-17 18:26 | 53.38627 | 157.89676 | 21691 ft | 426 kts | 210° |
| 2026-04-17 18:26 | 53.35926 | 157.87467 | 22090 ft | 437 kts | 210° |
| 2026-04-17 18:26 | 53.33195 | 157.85215 | 22819 ft | 438 kts | 211° |
| 2026-04-17 18:27 | 53.30450 | 157.82933 | 23419 ft | 444 kts | 211° |
| 2026-04-17 18:27 | 53.27678 | 157.80622 | 23962 ft | 447 kts | 211° |
| 2026-04-17 18:27 | 53.24883 | 157.78294 | 24483 ft | 451 kts | 211° |
| 2026-04-17 18:27 | 53.22067 | 157.75947 | 25012 ft | 454 kts | 211° |
| 2026-04-17 18:28 | 53.19256 | 157.73604 | 25328 ft | 463 kts | 211° |
| 2026-04-17 18:28 | 53.16346 | 157.71167 | 25441 ft | 475 kts | 211° |
| 2026-04-17 18:28 | 53.13362 | 157.68659 | 25613 ft | 484 kts | 211° |
| 2026-04-17 18:28 | 53.10357 | 157.66117 | 26253 ft | 482 kts | 213° |
| 2026-04-17 18:29 | 53.07592 | 157.63071 | 26870 ft | 473 kts | 226° |
| 2026-04-17 18:29 | 53.05492 | 157.58972 | 27505 ft | 462 kts | 244° |
| 2026-04-17 18:29 | 53.04157 | 157.54197 | 28285 ft | 453 kts | 252° |
| 2026-04-17 18:29 | 53.03081 | 157.49280 | 28912 ft | 452 kts | 253° |
| 2026-04-17 18:30 | 53.01998 | 157.44382 | 29585 ft | 451 kts | 253° |
| 2026-04-17 18:30 | 53.00932 | 157.39502 | 30212 ft | 449 kts | 254° |
| 2026-04-17 18:30 | 52.99949 | 157.34581 | 30709 ft | 448 kts | 256° |
| 2026-04-17 18:30 | 52.99060 | 157.29628 | 31226 ft | 448 kts | 257° |
| 2026-04-17 18:31 | 52.98222 | 157.24661 | 31698 ft | 447 kts | 258° |
| 2026-04-17 18:31 | 52.97396 | 157.19687 | 32179 ft | 447 kts | 258° |
| 2026-04-17 18:31 | 52.96569 | 157.14712 | 32661 ft | 447 kts | 257° |
| 2026-04-17 18:31 | 52.95743 | 157.09742 | 33162 ft | 446 kts | 258° |
| 2026-04-17 18:32 | 52.94924 | 157.04791 | 33652 ft | 445 kts | 258° |
| 2026-04-17 18:32 | 52.94118 | 156.99925 | 33875 ft | 428 kts | 258° |
| 2026-04-17 18:32 | 52.93331 | 156.95168 | 34013 ft | 433 kts | 258° |
| 2026-04-17 18:32 | 52.92528 | 156.90279 | 34149 ft | 446 kts | 258° |
| 2026-04-17 18:33 | 52.91712 | 156.85309 | 34513 ft | 447 kts | 257° |
| 2026-04-17 18:33 | 52.90896 | 156.80383 | 35006 ft | 450 kts | 257° |
| 2026-04-17 18:33 | 52.90064 | 156.75386 | 35592 ft | 451 kts | 257° |
| 2026-04-17 18:33 | 52.89227 | 156.70371 | 36180 ft | 452 kts | 257° |
| 2026-04-17 18:34 | 52.88387 | 156.65349 | 36743 ft | 453 kts | 257° |
| 2026-04-17 18:34 | 52.87544 | 156.60327 | 37373 ft | 453 kts | 257° |
| 2026-04-17 18:34 | 52.86697 | 156.55295 | 37930 ft | 454 kts | 256° |
| 2026-04-17 18:34 | 52.85848 | 156.50260 | 38489 ft | 455 kts | 256° |
| 2026-04-17 18:35 | 52.84994 | 156.45210 | 38971 ft | 455 kts | 256° |
| 2026-04-17 18:35 | 52.84138 | 156.40168 | 39422 ft | 455 kts | 256° |
| 2026-04-17 18:35 | 52.83281 | 156.35131 | 39888 ft | 455 kts | 255° |
| 2026-04-17 18:35 | 52.82183 | 156.30218 | 40275 ft | 459 kts | 242° |
| 2026-04-17 18:36 | 52.80396 | 156.25841 | 40780 ft | 461 kts | 233° |
| 2026-04-17 18:36 | 52.78357 | 156.21740 | 41238 ft | 461 kts | 233° |
| 2026-04-17 18:36 | 52.76383 | 156.17574 | 41690 ft | 460 kts | 235° |
| 2026-04-17 18:36 | 52.74463 | 156.13357 | 42149 ft | 459 kts | 235° |
| 2026-04-17 18:37 | 52.72516 | 156.09183 | 42611 ft | 459 kts | 233° |
| 2026-04-17 18:37 | 52.70541 | 156.05133 | 43040 ft | 459 kts | 232° |
| 2026-04-17 18:37 | 52.68504 | 156.01083 | 43473 ft | 459 kts | 232° |
| 2026-04-17 18:37 | 52.66452 | 155.97049 | 43900 ft | 459 kts | 232° |
| 2026-04-17 18:38 | 52.64404 | 155.93036 | 44311 ft | 458 kts | 232° |
| 2026-04-17 18:38 | 52.62341 | 155.89022 | 44719 ft | 458 kts | 231° |
| 2026-04-17 18:38 | 52.60278 | 155.85038 | 45081 ft | 458 kts | 231° |
| 2026-04-17 18:38 | 52.58210 | 155.81056 | 45439 ft | 458 kts | 231° |
| 2026-04-17 18:39 | 52.56146 | 155.77077 | 45809 ft | 457 kts | 231° |
| 2026-04-17 18:39 | 52.54084 | 155.73100 | 46136 ft | 457 kts | 231° |
| 2026-04-17 18:39 | 52.52023 | 155.69128 | 46447 ft | 457 kts | 231° |
| 2026-04-17 18:39 | 52.49961 | 155.65160 | 46739 ft | 457 kts | 231° |
| 2026-04-17 18:40 | 52.47902 | 155.61204 | 47019 ft | 456 kts | 231° |
| 2026-04-17 18:40 | 52.45839 | 155.57246 | 47282 ft | 456 kts | 231° |
| 2026-04-17 18:40 | 52.43776 | 155.53296 | 47549 ft | 456 kts | 231° |
| 2026-04-17 18:40 | 52.41713 | 155.49349 | 47769 ft | 456 kts | 231° |
| 2026-04-17 18:41 | 52.39651 | 155.45411 | 48000 ft | 456 kts | 231° |
| 2026-04-17 18:41 | 52.37611 | 155.41520 | 48241 ft | 455 kts | 231° |
| 2026-04-17 18:41 | 52.35549 | 155.37594 | 48468 ft | 455 kts | 231° |
| 2026-04-17 18:41 | 52.33486 | 155.33673 | 48641 ft | 455 kts | 231° |
| 2026-04-17 18:42 | 52.31420 | 155.29751 | 48826 ft | 455 kts | 231° |
| 2026-04-17 18:42 | 52.29357 | 155.25843 | 49007 ft | 455 kts | 231° |
| 2026-04-17 18:42 | 52.27290 | 155.21931 | 49175 ft | 455 kts | 231° |
| 2026-04-17 18:42 | 52.25222 | 155.18026 | 49334 ft | 455 kts | 231° |
| 2026-04-17 18:43 | 52.23156 | 155.14128 | 49487 ft | 454 kts | 231° |
| 2026-04-17 18:43 | 52.21084 | 155.10227 | 49640 ft | 454 kts | 231° |
| 2026-04-17 18:43 | 52.19015 | 155.06337 | 49778 ft | 454 kts | 231° |
| 2026-04-17 18:43 | 52.17647 | 155.03769 | 49872 ft | 454 kts | 231° |
| 2026-04-17 18:44 | 52.15578 | 154.99889 | 49990 ft | 454 kts | 231° |
| 2026-04-17 18:44 | 52.13505 | 154.96008 | 50106 ft | 454 kts | 231° |
| 2026-04-17 18:44 | 52.11436 | 154.92139 | 50219 ft | 454 kts | 231° |
| 2026-04-17 18:44 | 52.09360 | 154.88264 | 50286 ft | 454 kts | 231° |
| 2026-04-17 18:45 | 52.05203 | 154.80522 | 50453 ft | 455 kts | 230° |
| 2026-04-17 18:45 | 52.01042 | 154.72796 | 50613 ft | 455 kts | 230° |
| 2026-04-17 18:46 | 51.98956 | 154.68933 | 50714 ft | 454 kts | 230° |
| 2026-04-17 18:46 | 51.96872 | 154.65080 | 50777 ft | 454 kts | 231° |
| 2026-04-17 18:46 | 51.94793 | 154.61242 | 50887 ft | 453 kts | 231° |
| 2026-04-17 18:46 | 51.92714 | 154.57410 | 50969 ft | 453 kts | 231° |
| 2026-04-17 18:47 | 51.88549 | 154.49743 | 50580 ft | 466 kts | 230° |
| 2026-04-17 18:47 | 51.86374 | 154.45745 | 50055 ft | 478 kts | 230° |
| 2026-04-17 18:47 | 51.84168 | 154.41698 | 49660 ft | 482 kts | 230° |
| 2026-04-17 18:48 | 51.81943 | 154.37626 | 49221 ft | 483 kts | 230° |
| 2026-04-17 18:48 | 51.79721 | 154.33571 | 48757 ft | 482 kts | 230° |
| 2026-04-17 18:48 | 51.77496 | 154.29513 | 48265 ft | 482 kts | 230° |
| 2026-04-17 18:48 | 51.75268 | 154.25471 | 47733 ft | 483 kts | 230° |
| 2026-04-17 18:49 | 51.72974 | 154.21495 | 47173 ft | 484 kts | 228° |
| 2026-04-17 18:49 | 51.70646 | 154.17586 | 46587 ft | 484 kts | 228° |
| 2026-04-17 18:49 | 51.68310 | 154.13685 | 45966 ft | 481 kts | 228° |
| 2026-04-17 18:49 | 51.66018 | 154.09809 | 45326 ft | 475 kts | 229° |
| 2026-04-17 18:50 | 51.63779 | 154.05943 | 44713 ft | 470 kts | 230° |
| 2026-04-17 18:50 | 51.61586 | 154.02080 | 44090 ft | 465 kts | 230° |
| 2026-04-17 18:50 | 51.59427 | 153.98229 | 43462 ft | 461 kts | 231° |
| 2026-04-17 18:50 | 51.57298 | 153.94410 | 42895 ft | 456 kts | 231° |
| 2026-04-17 18:51 | 51.55194 | 153.90630 | 42327 ft | 451 kts | 231° |
| 2026-04-17 18:51 | 51.53111 | 153.86899 | 41773 ft | 447 kts | 231° |
| 2026-04-17 18:51 | 51.51042 | 153.83216 | 41251 ft | 442 kts | 231° |
| 2026-04-17 18:51 | 51.49013 | 153.79632 | 40755 ft | 437 kts | 231° |
| 2026-04-17 18:52 | 51.46970 | 153.76039 | 40270 ft | 437 kts | 231° |
| 2026-04-17 18:52 | 51.44913 | 153.72425 | 39795 ft | 441 kts | 231° |
| 2026-04-17 18:52 | 51.42836 | 153.68773 | 39309 ft | 445 kts | 231° |
| 2026-04-17 18:52 | 51.40745 | 153.65102 | 38838 ft | 447 kts | 231° |
| 2026-04-17 18:53 | 51.38648 | 153.61431 | 38351 ft | 446 kts | 231° |
| 2026-04-17 18:53 | 51.36568 | 153.57801 | 38142 ft | 441 kts | 231° |
| 2026-04-17 18:53 | 51.32417 | 153.50542 | 38080 ft | 449 kts | 232° |
| 2026-04-17 18:54 | 51.28140 | 153.43016 | 38053 ft | 462 kts | 232° |
| 2026-04-17 18:54 | 51.23813 | 153.35423 | 38039 ft | 462 kts | 232° |
| 2026-04-17 18:55 | 51.19475 | 153.27865 | 38055 ft | 461 kts | 231° |
| 2026-04-17 18:55 | 51.15136 | 153.20340 | 38057 ft | 461 kts | 231° |
| 2026-04-17 18:56 | 51.10831 | 153.12878 | 38056 ft | 461 kts | 231° |
| 2026-04-17 18:56 | 51.06496 | 153.05379 | 38044 ft | 460 kts | 231° |
| 2026-04-17 18:57 | 51.02149 | 152.97903 | 38053 ft | 459 kts | 231° |
| 2026-04-17 18:57 | 50.97808 | 152.90476 | 38060 ft | 458 kts | 231° |
| 2026-04-17 18:58 | 50.93475 | 152.83056 | 38058 ft | 458 kts | 232° |
| 2026-04-17 18:58 | 50.89144 | 152.75653 | 38068 ft | 458 kts | 231° |
| 2026-04-17 18:59 | 50.84801 | 152.68249 | 38043 ft | 458 kts | 232° |
| 2026-04-17 18:59 | 50.80470 | 152.60907 | 38053 ft | 456 kts | 231° |
| 2026-04-17 19:00 | 50.76144 | 152.53598 | 38067 ft | 455 kts | 231° |
| 2026-04-17 19:00 | 50.71827 | 152.46312 | 38068 ft | 455 kts | 231° |
| 2026-04-17 19:01 | 50.67494 | 152.39007 | 38059 ft | 455 kts | 231° |
| 2026-04-17 19:01 | 50.63198 | 152.31785 | 38052 ft | 454 kts | 231° |
| 2026-04-17 19:02 | 50.58870 | 152.24537 | 38064 ft | 454 kts | 231° |
| 2026-04-17 19:02 | 50.54543 | 152.17312 | 38068 ft | 454 kts | 231° |
| 2026-04-17 19:03 | 50.50209 | 152.10092 | 38071 ft | 454 kts | 231° |
| 2026-04-17 19:03 | 50.45873 | 152.02888 | 38063 ft | 454 kts | 231° |
| 2026-04-17 19:04 | 50.41524 | 151.95697 | 38066 ft | 454 kts | 231° |
| 2026-04-17 19:04 | 50.37170 | 151.88515 | 38070 ft | 454 kts | 231° |
| 2026-04-17 19:05 | 50.32842 | 151.81390 | 38070 ft | 454 kts | 231° |
| 2026-04-17 19:05 | 50.28479 | 151.74225 | 38067 ft | 454 kts | 231° |
| 2026-04-17 19:06 | 50.24117 | 151.67079 | 38074 ft | 455 kts | 231° |
| 2026-04-17 19:06 | 50.19748 | 151.59941 | 38076 ft | 455 kts | 231° |
| 2026-04-17 19:07 | 50.15372 | 151.52816 | 38066 ft | 455 kts | 231° |
| 2026-04-17 19:07 | 50.10988 | 151.45712 | 38072 ft | 454 kts | 231° |
| 2026-04-17 19:08 | 50.06602 | 151.38628 | 38062 ft | 454 kts | 231° |
| 2026-04-17 19:08 | 50.02215 | 151.31564 | 38062 ft | 454 kts | 231° |
| 2026-04-17 19:09 | 49.97858 | 151.24555 | 38060 ft | 454 kts | 231° |
| 2026-04-17 19:09 | 49.93443 | 151.17466 | 38077 ft | 454 kts | 231° |
| 2026-04-17 19:10 | 49.89083 | 151.10487 | 38067 ft | 453 kts | 231° |
| 2026-04-17 19:10 | 49.84695 | 151.03495 | 38065 ft | 452 kts | 231° |
| 2026-04-17 19:11 | 49.80307 | 150.96521 | 38066 ft | 452 kts | 231° |
| 2026-04-17 19:11 | 49.75919 | 150.89553 | 38068 ft | 452 kts | 231° |
| 2026-04-17 19:12 | 49.71525 | 150.82595 | 38053 ft | 452 kts | 231° |
| 2026-04-17 19:12 | 49.67132 | 150.75675 | 38059 ft | 450 kts | 231° |
| 2026-04-17 19:13 | 49.62745 | 150.68789 | 38061 ft | 449 kts | 231° |
| 2026-04-17 19:13 | 49.58361 | 150.61911 | 38061 ft | 449 kts | 231° |
| 2026-04-17 19:14 | 49.54008 | 150.55095 | 38061 ft | 449 kts | 231° |
| 2026-04-17 19:14 | 49.49621 | 150.48238 | 38056 ft | 449 kts | 231° |
| 2026-04-17 19:15 | 49.45246 | 150.41418 | 38056 ft | 448 kts | 231° |
| 2026-04-17 19:15 | 49.40868 | 150.34621 | 38056 ft | 448 kts | 231° |
| 2026-04-17 19:16 | 49.36481 | 150.27829 | 38049 ft | 448 kts | 231° |
| 2026-04-17 19:16 | 49.32092 | 150.21047 | 38042 ft | 447 kts | 231° |
| 2026-04-17 19:17 | 49.27711 | 150.14291 | 38044 ft | 446 kts | 230° |
| 2026-04-17 19:17 | 49.23366 | 150.07624 | 38039 ft | 445 kts | 231° |
| 2026-04-17 19:18 | 49.18986 | 150.00935 | 38044 ft | 445 kts | 230° |
| 2026-04-17 19:18 | 49.14612 | 149.94252 | 38039 ft | 445 kts | 231° |
| 2026-04-17 19:19 | 49.10238 | 149.87582 | 38033 ft | 444 kts | 230° |
| 2026-04-17 19:19 | 49.05871 | 149.80938 | 38033 ft | 444 kts | 230° |
| 2026-04-17 19:20 | 49.01501 | 149.74306 | 38030 ft | 443 kts | 230° |
| 2026-04-17 19:20 | 48.97125 | 149.67682 | 38034 ft | 443 kts | 230° |
| 2026-04-17 19:21 | 48.92744 | 149.61071 | 38016 ft | 443 kts | 230° |
| 2026-04-17 19:21 | 48.88373 | 149.54495 | 38027 ft | 442 kts | 230° |
| 2026-04-17 19:22 | 48.83997 | 149.47927 | 38017 ft | 442 kts | 230° |
| 2026-04-17 19:22 | 48.79617 | 149.41374 | 38017 ft | 442 kts | 230° |
| 2026-04-17 19:23 | 48.73037 | 149.31581 | 38010 ft | 441 kts | 230° |
| 2026-04-17 19:24 | 48.68660 | 149.25081 | 38012 ft | 441 kts | 230° |
| 2026-04-17 19:24 | 48.64275 | 149.18576 | 38010 ft | 441 kts | 230° |
| 2026-04-17 19:25 | 48.59891 | 149.12086 | 38010 ft | 441 kts | 230° |
| 2026-04-17 19:25 | 48.55534 | 149.05653 | 38003 ft | 441 kts | 230° |
| 2026-04-17 19:26 | 48.51119 | 148.99153 | 38004 ft | 440 kts | 230° |
| 2026-04-17 19:26 | 48.46761 | 148.92751 | 38004 ft | 440 kts | 230° |
| 2026-04-17 19:27 | 48.42372 | 148.86320 | 38003 ft | 440 kts | 230° |
| 2026-04-17 19:27 | 48.37976 | 148.79895 | 38001 ft | 441 kts | 230° |
| 2026-04-17 19:28 | 48.33570 | 148.73478 | 38002 ft | 441 kts | 230° |
| 2026-04-17 19:28 | 48.29159 | 148.67076 | 38003 ft | 441 kts | 230° |
| 2026-04-17 19:29 | 48.24745 | 148.60677 | 38005 ft | 441 kts | 230° |
| 2026-04-17 19:29 | 48.20331 | 148.54291 | 38000 ft | 441 kts | 230° |
| 2026-04-17 19:30 | 48.12097 | 148.42378 | 38003 ft | 439 kts | 230° |
| 2026-04-17 19:31 | 48.07684 | 148.36044 | 38002 ft | 439 kts | 230° |
| 2026-04-17 19:31 | 48.03272 | 148.29727 | 38002 ft | 439 kts | 230° |
| 2026-04-17 19:32 | 47.98866 | 148.23421 | 37999 ft | 438 kts | 230° |
| 2026-04-17 19:32 | 47.94494 | 148.17162 | 38002 ft | 437 kts | 230° |
| 2026-04-17 19:33 | 47.90093 | 148.10908 | 38004 ft | 438 kts | 229° |
| 2026-04-17 19:33 | 47.85672 | 148.04661 | 38002 ft | 438 kts | 229° |
| 2026-04-17 19:34 | 47.81259 | 147.98420 | 37992 ft | 437 kts | 229° |
| 2026-04-17 19:34 | 47.76864 | 147.92180 | 37988 ft | 437 kts | 229° |
| 2026-04-17 19:35 | 47.72459 | 147.85964 | 37988 ft | 437 kts | 229° |
| 2026-04-17 19:35 | 47.68075 | 147.79812 | 37997 ft | 436 kts | 229° |
| 2026-04-17 19:36 | 47.63662 | 147.73634 | 37978 ft | 437 kts | 229° |
| 2026-04-17 19:36 | 47.59257 | 147.67440 | 37994 ft | 436 kts | 229° |
| 2026-04-17 19:37 | 47.54846 | 147.61268 | 37990 ft | 436 kts | 229° |
| 2026-04-17 19:37 | 47.50420 | 147.55113 | 37989 ft | 437 kts | 229° |
| 2026-04-17 19:38 | 47.45991 | 147.48984 | 37987 ft | 436 kts | 229° |
| 2026-04-17 19:38 | 47.41569 | 147.42854 | 37988 ft | 435 kts | 229° |
| 2026-04-17 19:39 | 47.37153 | 147.36733 | 37988 ft | 435 kts | 229° |
| 2026-04-17 19:39 | 47.32726 | 147.30636 | 37989 ft | 435 kts | 229° |
| 2026-04-17 19:40 | 47.28327 | 147.24597 | 37987 ft | 435 kts | 229° |
| 2026-04-17 19:40 | 47.23902 | 147.18516 | 37985 ft | 435 kts | 229° |
| 2026-04-17 19:41 | 47.19479 | 147.12451 | 37986 ft | 434 kts | 228° |
| 2026-04-17 19:41 | 47.15051 | 147.06410 | 37985 ft | 434 kts | 228° |
| 2026-04-17 19:42 | 47.10615 | 147.00376 | 37985 ft | 434 kts | 228° |
| 2026-04-17 19:42 | 47.06186 | 146.94356 | 37980 ft | 434 kts | 228° |
| 2026-04-17 19:43 | 47.01760 | 146.88348 | 37982 ft | 433 kts | 228° |
| 2026-04-17 19:43 | 46.97326 | 146.82369 | 37979 ft | 433 kts | 228° |
| 2026-04-17 19:44 | 46.92886 | 146.76388 | 37981 ft | 433 kts | 228° |
| 2026-04-17 19:44 | 46.88469 | 146.70462 | 37977 ft | 433 kts | 228° |
| 2026-04-17 19:45 | 46.84021 | 146.64525 | 37978 ft | 433 kts | 228° |
| 2026-04-17 19:45 | 46.79581 | 146.58605 | 37979 ft | 433 kts | 228° |
| 2026-04-17 19:46 | 46.75131 | 146.52687 | 37984 ft | 433 kts | 228° |
| 2026-04-17 19:46 | 46.70683 | 146.46785 | 37969 ft | 432 kts | 228° |
| 2026-04-17 19:47 | 46.66236 | 146.40898 | 37976 ft | 431 kts | 228° |
| 2026-04-17 19:47 | 46.61797 | 146.35037 | 37960 ft | 431 kts | 228° |
| 2026-04-17 19:48 | 46.57378 | 146.29233 | 37976 ft | 431 kts | 228° |
| 2026-04-17 19:48 | 46.52931 | 146.23402 | 37981 ft | 431 kts | 228° |
| 2026-04-17 19:49 | 46.48484 | 146.17575 | 37973 ft | 431 kts | 228° |
| 2026-04-17 19:49 | 46.44033 | 146.11753 | 37966 ft | 431 kts | 228° |
| 2026-04-17 19:50 | 46.39583 | 146.05943 | 37961 ft | 431 kts | 228° |
| 2026-04-17 19:50 | 46.35129 | 146.00139 | 37966 ft | 431 kts | 227° |
| 2026-04-17 19:51 | 46.30685 | 145.94340 | 37968 ft | 429 kts | 228° |
| 2026-04-17 19:51 | 46.26245 | 145.88579 | 37964 ft | 429 kts | 227° |
| 2026-04-17 19:52 | 46.21791 | 145.82825 | 37965 ft | 429 kts | 227° |
| 2026-04-17 19:52 | 46.17372 | 145.77121 | 37965 ft | 429 kts | 227° |
| 2026-04-17 19:53 | 46.12924 | 145.71386 | 37956 ft | 428 kts | 227° |
| 2026-04-17 19:53 | 46.08479 | 145.65672 | 37964 ft | 428 kts | 227° |
| 2026-04-17 19:54 | 46.04024 | 145.59962 | 37964 ft | 428 kts | 227° |
| 2026-04-17 19:54 | 45.99575 | 145.54273 | 37965 ft | 428 kts | 227° |
| 2026-04-17 19:55 | 45.95127 | 145.48592 | 37954 ft | 427 kts | 227° |
| 2026-04-17 19:55 | 45.90682 | 145.42936 | 37953 ft | 427 kts | 227° |
| 2026-04-17 19:56 | 45.86258 | 145.37333 | 37952 ft | 427 kts | 227° |
| 2026-04-17 19:56 | 45.81800 | 145.31699 | 37948 ft | 427 kts | 227° |
| 2026-04-17 19:57 | 45.77359 | 145.26076 | 37943 ft | 426 kts | 227° |
| 2026-04-17 19:57 | 45.72907 | 145.20465 | 37948 ft | 426 kts | 227° |
| 2026-04-17 19:58 | 45.68447 | 145.14890 | 37937 ft | 426 kts | 227° |
| 2026-04-17 19:58 | 45.63992 | 145.09313 | 37944 ft | 425 kts | 227° |
| 2026-04-17 19:59 | 45.59546 | 145.03746 | 37937 ft | 425 kts | 227° |
| 2026-04-17 19:59 | 45.55124 | 144.98218 | 37937 ft | 425 kts | 227° |
| 2026-04-17 20:00 | 45.50665 | 144.92670 | 37941 ft | 425 kts | 227° |
| 2026-04-17 20:00 | 45.46206 | 144.87132 | 37940 ft | 425 kts | 227° |
| 2026-04-17 20:01 | 45.41756 | 144.81600 | 37937 ft | 424 kts | 227° |
| 2026-04-17 20:01 | 45.37320 | 144.76087 | 37927 ft | 423 kts | 226° |
| 2026-04-17 20:02 | 45.32874 | 144.70601 | 37930 ft | 423 kts | 226° |
| 2026-04-17 20:02 | 45.28413 | 144.65141 | 37930 ft | 423 kts | 226° |
| 2026-04-17 20:03 | 45.23970 | 144.59681 | 37918 ft | 422 kts | 227° |
| 2026-04-17 20:03 | 45.19554 | 144.54236 | 37923 ft | 421 kts | 226° |
| 2026-04-17 20:04 | 45.15154 | 144.48848 | 37924 ft | 421 kts | 226° |
| 2026-04-17 20:04 | 45.10720 | 144.43439 | 37921 ft | 421 kts | 226° |
| 2026-04-17 20:05 | 45.06289 | 144.38025 | 37913 ft | 420 kts | 226° |
| 2026-04-17 20:05 | 45.01864 | 144.32620 | 37921 ft | 420 kts | 226° |
| 2026-04-17 20:06 | 44.97441 | 144.27230 | 37915 ft | 420 kts | 227° |
| 2026-04-17 20:06 | 44.93140 | 144.21674 | 37914 ft | 418 kts | 229° |
| 2026-04-17 20:07 | 44.88919 | 144.16029 | 37905 ft | 418 kts | 229° |
| 2026-04-17 20:07 | 44.84695 | 144.10418 | 37908 ft | 417 kts | 229° |
| 2026-04-17 20:08 | 44.81879 | 144.06725 | 37909 ft | 417 kts | 228° |